Time,TemperatureF,DewpointF,PressureIn,WindDirection,WindDirectionDegrees,WindSpeedMPH,WindSpeedGustMPH,Humidity,HourlyPrecipIn,Conditions,Clouds,dailyrainin,SoftwareType,DateUTC
2013-03-06 00:00:00,27.2,24.9,29.90,NE,52,3.0,3.0,91,0.00,,,0.00,Wunderground v.1.15,2013-03-06 06:00:00,
2013-03-06 00:10:00,27.0,24.7,29.90,NE,41,3.0,3.0,91,0.00,,,0.00,Wunderground v.1.15,2013-03-06 06:10:00,
2013-03-06 00:15:00,27.0,24.7,29.90,NE,44,2.0,4.0,91,0.00,,,0.00,Wunderground v.1.15,2013-03-06 06:15:00,
2013-03-06 00:20:00,27.0,24.7,29.90,East,84,4.0,4.0,91,0.00,,,0.00,Wunderground v.1.15,2013-03-06 06:20:00,
2013-03-06 00:25:00,27.0,24.7,29.90,NE,48,4.0,4.0,91,0.00,,,0.00,Wunderground v.1.15,2013-03-06 06:25:00,
2013-03-06 00:30:00,27.0,24.7,29.90,NE,34,4.0,6.0,91,0.00,,,0.00,Wunderground v.1.15,2013-03-06 06:30:00,
2013-03-06 00:35:00,27.0,24.7,29.91,NE,48,4.0,6.0,91,0.00,,,0.00,Wunderground v.1.15,2013-03-06 06:35:00,
2013-03-06 00:40:00,27.0,24.7,29.91,NE,46,5.0,5.0,91,0.00,,,0.00,Wunderground v.1.15,2013-03-06 06:40:00,
2013-03-06 00:45:00,27.0,24.7,29.91,NE,34,4.0,5.0,91,0.00,,,0.00,Wunderground v.1.15,2013-03-06 06:45:00,
2013-03-06 00:50:00,27.0,24.7,29.91,NE,51,4.0,4.0,91,0.00,,,0.00,Wunderground v.1.15,2013-03-06 06:50:00,
2013-03-06 00:55:00,27.2,24.9,29.91,NE,38,3.0,15.0,91,0.00,,,0.00,Wunderground v.1.15,2013-03-06 06:55:00,
2013-03-06 01:00:00,27.2,24.9,29.92,ENE,74,4.0,4.0,91,0.00,,,0.00,Wunderground v.1.15,2013-03-06 07:00:00,
2013-03-06 01:09:00,27.2,24.7,29.92,ENE,68,4.0,4.0,90,0.00,,,0.00,Wunderground v.1.15,2013-03-06 07:09:00,
2013-03-06 01:14:00,27.2,24.7,29.92,ENE,78,2.0,4.0,90,0.00,,,0.00,Wunderground v.1.15,2013-03-06 07:14:00,
2013-03-06 01:20:00,27.2,24.7,29.92,ENE,78,1.0,1.0,90,0.00,,,0.00,Wunderground v.1.15,2013-03-06 07:20:00,
2013-03-06 01:25:00,27.0,24.5,29.92,ENE,67,1.0,1.0,90,0.00,,,0.00,Wunderground v.1.15,2013-03-06 07:25:00,
2013-03-06 01:30:00,27.0,24.5,29.92,NE,46,2.0,3.0,90,0.00,,,0.00,Wunderground v.1.15,2013-03-06 07:30:00,
2013-03-06 01:35:00,27.0,24.5,29.93,ENE,61,2.0,3.0,90,0.00,,,0.00,Wunderground v.1.15,2013-03-06 07:35:00,
2013-03-06 01:40:00,27.0,24.5,29.93,NE,35,3.0,5.0,90,0.00,,,0.00,Wunderground v.1.15,2013-03-06 07:40:00,
2013-03-06 01:45:00,27.0,24.5,29.93,NE,48,4.0,6.0,90,0.00,,,0.00,Wunderground v.1.15,2013-03-06 07:45:00,
2013-03-06 01:50:00,27.2,24.7,29.93,NNE,32,4.0,4.0,90,0.00,,,0.00,Wunderground v.1.15,2013-03-06 07:50:00,
2013-03-06 01:55:00,27.2,24.7,29.93,NE,52,4.0,5.0,90,0.00,,,0.00,Wunderground v.1.15,2013-03-06 07:55:00,
2013-03-06 02:00:00,27.2,24.7,29.93,NE,46,4.0,4.0,90,0.00,,,0.00,Wunderground v.1.15,2013-03-06 08:00:00,
2013-03-06 02:05:00,27.2,24.7,29.94,NE,46,4.0,4.0,90,0.00,,,0.00,Wunderground v.1.15,2013-03-06 08:05:00,
2013-03-06 02:14:00,27.3,24.5,29.94,NE,42,5.0,6.0,89,0.00,,,0.00,Wunderground v.1.15,2013-03-06 08:14:00,
2013-03-06 02:19:00,27.3,24.5,29.94,NE,37,5.0,5.0,89,0.00,,,0.00,Wunderground v.1.15,2013-03-06 08:19:00,
2013-03-06 02:24:00,27.3,24.5,29.94,NE,55,3.0,5.0,89,0.00,,,0.00,Wunderground v.1.15,2013-03-06 08:24:00,
2013-03-06 02:30:00,27.5,24.7,29.94,ENE,60,3.0,3.0,89,0.00,,,0.00,Wunderground v.1.15,2013-03-06 08:30:00,
2013-03-06 02:35:00,27.5,24.7,29.95,NE,34,4.0,4.0,89,0.00,,,0.00,Wunderground v.1.15,2013-03-06 08:35:00,
2013-03-06 02:40:00,27.5,24.7,29.95,NE,47,4.0,4.0,89,0.00,,,0.00,Wunderground v.1.15,2013-03-06 08:40:00,
2013-03-06 02:45:00,27.5,24.7,29.95,NE,41,4.0,4.0,89,0.00,,,0.00,Wunderground v.1.15,2013-03-06 08:45:00,
2013-03-06 02:50:00,27.6,24.8,29.95,NE,42,5.0,5.0,89,0.00,,,0.00,Wunderground v.1.15,2013-03-06 08:50:00,
2013-03-06 02:55:00,27.6,24.8,29.95,NE,43,4.0,5.0,89,0.00,,,0.00,Wunderground v.1.15,2013-03-06 08:55:00,
2013-03-06 03:05:00,27.8,25.0,29.95,ENE,63,3.0,4.0,89,0.00,,,0.00,Wunderground v.1.15,2013-03-06 09:05:00,
2013-03-06 03:10:00,27.9,25.1,29.95,NE,56,3.0,7.0,89,0.00,,,0.00,Wunderground v.1.15,2013-03-06 09:10:00,
2013-03-06 03:15:00,27.9,25.1,29.95,ENE,57,3.0,7.0,89,0.00,,,0.00,Wunderground v.1.15,2013-03-06 09:15:00,
2013-03-06 03:20:00,27.9,25.1,29.95,NNE,21,3.0,4.0,89,0.00,,,0.00,Wunderground v.1.15,2013-03-06 09:20:00,
2013-03-06 03:25:00,28.1,25.3,29.95,NE,46,3.0,4.0,89,0.00,,,0.00,Wunderground v.1.15,2013-03-06 09:25:00,
2013-03-06 03:29:00,28.1,25.3,29.95,NE,40,3.0,10.0,89,0.00,,,0.00,Wunderground v.1.15,2013-03-06 09:29:00,
2013-03-06 03:34:00,28.2,25.4,29.96,NE,45,4.0,10.0,89,0.00,,,0.00,Wunderground v.1.15,2013-03-06 09:34:00,
2013-03-06 03:39:00,28.2,25.4,29.96,NNE,14,3.0,6.0,89,0.00,,,0.00,Wunderground v.1.15,2013-03-06 09:39:00,
2013-03-06 03:44:00,28.4,25.6,29.96,NE,55,4.0,6.0,89,0.00,,,0.00,Wunderground v.1.15,2013-03-06 09:44:00,
2013-03-06 03:49:00,28.4,25.6,29.97,NNE,32,4.0,10.0,89,0.00,,,0.00,Wunderground v.1.15,2013-03-06 09:49:00,
2013-03-06 03:55:00,28.5,25.7,29.97,ENE,69,5.0,10.0,89,0.00,,,0.00,Wunderground v.1.15,2013-03-06 09:55:00,
2013-03-06 04:00:00,28.5,25.7,29.97,NE,49,6.0,6.0,89,0.00,,,0.00,Wunderground v.1.15,2013-03-06 10:00:00,
2013-03-06 04:05:00,28.5,25.7,29.97,NNE,30,5.0,6.0,89,0.00,,,0.00,Wunderground v.1.15,2013-03-06 10:05:00,
2013-03-06 04:15:00,28.7,25.9,29.98,North,10,6.0,7.0,89,0.00,,,0.00,Wunderground v.1.15,2013-03-06 10:15:00,
2013-03-06 04:20:00,28.7,25.9,29.98,NE,40,5.0,11.0,89,0.00,,,0.00,Wunderground v.1.15,2013-03-06 10:20:00,
2013-03-06 04:25:00,28.8,26.0,29.98,NE,38,7.0,11.0,89,0.00,,,0.00,Wunderground v.1.15,2013-03-06 10:25:00,
2013-03-06 04:34:00,28.8,26.0,29.99,ENE,61,8.0,9.0,89,0.00,,,0.00,Wunderground v.1.15,2013-03-06 10:34:00,
2013-03-06 04:39:00,28.8,26.0,29.99,NE,46,8.0,8.0,89,0.00,,,0.00,Wunderground v.1.15,2013-03-06 10:39:00,
2013-03-06 04:44:00,28.8,26.0,29.99,NE,47,6.0,8.0,89,0.00,,,0.00,Wunderground v.1.15,2013-03-06 10:44:00,
2013-03-06 04:49:00,28.8,26.0,30.00,NNE,20,8.0,11.0,89,0.00,,,0.00,Wunderground v.1.15,2013-03-06 10:49:00,
2013-03-06 04:54:00,29.0,26.2,30.00,NNE,28,9.0,11.0,89,0.00,,,0.00,Wunderground v.1.15,2013-03-06 10:54:00,
2013-03-06 05:00:00,29.1,26.3,30.00,NE,51,7.0,7.0,89,0.00,,,0.00,Wunderground v.1.15,2013-03-06 11:00:00,
2013-03-06 05:05:00,29.1,26.3,30.01,NE,45,8.0,9.0,89,0.00,,,0.00,Wunderground v.1.15,2013-03-06 11:05:00,
2013-03-06 05:10:00,29.3,26.2,30.01,NE,39,8.0,9.0,88,0.00,,,0.00,Wunderground v.1.15,2013-03-06 11:10:00,
2013-03-06 05:15:00,29.3,26.2,30.02,NNE,15,8.0,11.0,88,0.00,,,0.00,Wunderground v.1.15,2013-03-06 11:15:00,
2013-03-06 05:20:00,29.4,26.3,30.02,NE,47,8.0,11.0,88,0.00,,,0.00,Wunderground v.1.15,2013-03-06 11:20:00,
2013-03-06 05:25:00,29.4,26.3,30.02,NNE,22,10.0,12.0,88,0.00,,,0.00,Wunderground v.1.15,2013-03-06 11:25:00,
2013-03-06 05:30:00,29.4,26.3,30.03,ENE,74,10.0,10.0,88,0.00,,,0.00,Wunderground v.1.15,2013-03-06 11:30:00,
2013-03-06 05:39:00,29.5,26.4,30.03,NNE,12,7.0,11.0,88,0.00,,,0.00,Wunderground v.1.15,2013-03-06 11:39:00,
2013-03-06 05:44:00,29.7,26.6,30.03,NNE,24,8.0,11.0,88,0.00,,,0.00,Wunderground v.1.15,2013-03-06 11:44:00,
2013-03-06 05:49:00,29.8,26.7,30.04,NE,40,7.0,7.0,88,0.00,,,0.00,Wunderground v.1.15,2013-03-06 11:49:00,
2013-03-06 05:55:00,29.8,26.4,30.04,NE,42,9.0,9.0,87,0.00,,,0.00,Wunderground v.1.15,2013-03-06 11:55:00,
2013-03-06 06:00:00,30.0,26.6,30.04,NE,47,10.0,10.0,87,0.00,,,0.00,Wunderground v.1.15,2013-03-06 12:00:00,
2013-03-06 06:05:00,30.0,26.6,30.05,NNE,24,8.0,10.0,87,0.00,,,0.00,Wunderground v.1.15,2013-03-06 12:05:00,
2013-03-06 06:10:00,30.0,26.6,30.05,ENE,75,7.0,11.0,87,0.00,,,0.00,Wunderground v.1.15,2013-03-06 12:10:00,
2013-03-06 06:15:00,30.0,26.6,30.05,NNE,28,7.0,12.0,87,0.00,,,0.00,Wunderground v.1.15,2013-03-06 12:15:00,
2013-03-06 06:20:00,30.0,26.6,30.05,NE,42,8.0,8.0,87,0.00,,,0.00,Wunderground v.1.15,2013-03-06 12:20:00,
2013-03-06 06:25:00,30.1,26.7,30.05,NE,36,8.0,8.0,87,0.00,,,0.00,Wunderground v.1.15,2013-03-06 12:25:00,
2013-03-06 06:29:00,30.1,26.7,30.05,NE,35,8.0,8.0,87,0.00,,,0.00,Wunderground v.1.15,2013-03-06 12:29:00,
2013-03-06 06:35:00,30.3,26.9,30.06,NE,38,7.0,13.0,87,0.00,,,0.00,Wunderground v.1.15,2013-03-06 12:35:00,
2013-03-06 06:40:00,30.3,26.9,30.06,NE,40,7.0,7.0,87,0.00,,,0.00,Wunderground v.1.15,2013-03-06 12:40:00,
2013-03-06 06:45:00,30.4,27.0,30.07,NE,35,8.0,9.0,87,0.00,,,0.00,Wunderground v.1.15,2013-03-06 12:45:00,
2013-03-06 06:49:00,30.4,27.0,30.07,NNE,32,7.0,10.0,87,0.00,,,0.00,Wunderground v.1.15,2013-03-06 12:49:00,
2013-03-06 06:54:00,30.4,27.0,30.07,NE,39,8.0,10.0,87,0.00,,,0.00,Wunderground v.1.15,2013-03-06 12:54:00,
2013-03-06 06:59:00,30.6,26.9,30.07,NNE,29,10.0,10.0,86,0.00,,,0.00,Wunderground v.1.15,2013-03-06 12:59:00,
2013-03-06 07:05:00,30.6,26.9,30.07,North,5,9.0,10.0,86,0.00,,,0.00,Wunderground v.1.15,2013-03-06 13:05:00,
2013-03-06 07:10:00,30.7,27.0,30.07,NE,38,7.0,7.0,86,0.00,,,0.00,Wunderground v.1.15,2013-03-06 13:10:00,
2013-03-06 07:15:00,30.7,27.0,30.07,NE,55,6.0,7.0,86,0.00,,,0.00,Wunderground v.1.15,2013-03-06 13:15:00,
2013-03-06 07:20:00,30.7,27.3,30.08,ENE,57,5.0,5.0,87,0.00,,,0.00,Wunderground v.1.15,2013-03-06 13:20:00,
2013-03-06 07:25:00,30.7,27.3,30.08,NNE,28,6.0,12.0,87,0.00,,,0.00,Wunderground v.1.15,2013-03-06 13:25:00,
2013-03-06 07:30:00,30.7,27.0,30.08,NE,53,6.0,6.0,86,0.00,,,0.00,Wunderground v.1.15,2013-03-06 13:30:00,
2013-03-06 07:35:00,30.7,27.0,30.08,NNE,31,6.0,14.0,86,0.00,,,0.00,Wunderground v.1.15,2013-03-06 13:35:00,
2013-03-06 07:40:00,30.9,27.2,30.08,NE,43,5.0,5.0,86,0.00,,,0.00,Wunderground v.1.15,2013-03-06 13:40:00,
2013-03-06 07:45:00,30.9,27.5,30.08,ENE,61,5.0,8.0,87,0.00,,,0.00,Wunderground v.1.15,2013-03-06 13:45:00,
2013-03-06 07:50:00,30.9,27.5,30.08,NE,40,5.0,6.0,87,0.00,,,0.00,Wunderground v.1.15,2013-03-06 13:50:00,
2013-03-06 07:55:00,30.9,27.5,30.08,East,87,5.0,6.0,87,0.00,,,0.00,Wunderground v.1.15,2013-03-06 13:55:00,
2013-03-06 08:00:00,31.0,27.6,30.09,ENE,61,5.0,7.0,87,0.00,,,0.00,Wunderground v.1.15,2013-03-06 14:00:00,
2013-03-06 08:04:00,31.0,27.3,30.09,NE,44,5.0,7.0,86,0.00,,,0.00,Wunderground v.1.15,2013-03-06 14:04:00,
2013-03-06 08:10:00,31.0,27.3,30.09,NNE,26,4.0,10.0,86,0.00,,,0.00,Wunderground v.1.15,2013-03-06 14:10:00,
2013-03-06 08:15:00,31.0,27.3,30.09,ENE,74,4.0,10.0,86,0.00,,,0.00,Wunderground v.1.15,2013-03-06 14:15:00,
2013-03-06 08:20:00,31.2,27.5,30.09,NE,34,4.0,4.0,86,0.00,,,0.00,Wunderground v.1.15,2013-03-06 14:20:00,
2013-03-06 08:25:00,31.2,27.5,30.09,ENE,74,5.0,6.0,86,0.00,,,0.00,Wunderground v.1.15,2013-03-06 14:25:00,
2013-03-06 08:30:00,31.2,27.5,30.10,East,80,4.0,6.0,86,0.00,,,0.00,Wunderground v.1.15,2013-03-06 14:30:00,
2013-03-06 08:35:00,31.2,27.5,30.10,NE,54,4.0,6.0,86,0.00,,,0.00,Wunderground v.1.15,2013-03-06 14:35:00,
2013-03-06 08:40:00,31.3,27.6,30.10,NE,37,4.0,4.0,86,0.00,,,0.00,Wunderground v.1.15,2013-03-06 14:40:00,
2013-03-06 08:49:00,31.5,27.8,30.10,NE,55,3.0,3.0,86,0.00,,,0.00,Wunderground v.1.15,2013-03-06 14:49:00,
2013-03-06 08:54:00,31.6,27.6,30.10,NE,54,3.0,3.0,85,0.00,,,0.00,Wunderground v.1.15,2013-03-06 14:54:00,
2013-03-06 08:59:00,31.8,27.8,30.10,NE,45,4.0,5.0,85,0.00,,,0.00,Wunderground v.1.15,2013-03-06 14:59:00,
2013-03-06 09:05:00,31.8,27.8,30.10,ENE,70,4.0,5.0,85,0.00,,,0.00,Wunderground v.1.15,2013-03-06 15:05:00,
2013-03-06 09:10:00,31.8,27.5,30.10,NNE,19,5.0,6.0,84,0.00,,,0.00,Wunderground v.1.15,2013-03-06 15:10:00,
2013-03-06 09:15:00,31.9,27.6,30.11,NE,49,5.0,6.0,84,0.00,,,0.00,Wunderground v.1.15,2013-03-06 15:15:00,
2013-03-06 09:20:00,31.9,27.3,30.11,ENE,65,5.0,5.0,83,0.00,,,0.00,Wunderground v.1.15,2013-03-06 15:20:00,
2013-03-06 09:25:00,32.1,27.5,30.11,NE,51,4.0,5.0,83,0.00,,,0.00,Wunderground v.1.15,2013-03-06 15:25:00,
2013-03-06 09:29:00,31.9,27.3,30.11,NNE,24,5.0,5.0,83,0.00,,,0.00,Wunderground v.1.15,2013-03-06 15:29:00,
2013-03-06 09:34:00,32.1,27.5,30.12,NE,34,6.0,8.0,83,0.00,,,0.00,Wunderground v.1.15,2013-03-06 15:34:00,
2013-03-06 09:39:00,32.1,27.5,30.12,NE,40,6.0,6.0,83,0.00,,,0.00,Wunderground v.1.15,2013-03-06 15:39:00,
2013-03-06 09:44:00,32.1,27.2,30.12,North,11,6.0,7.0,82,0.00,,,0.00,Wunderground v.1.15,2013-03-06 15:44:00,
2013-03-06 09:49:00,32.1,27.5,30.12,North,10,7.0,11.0,83,0.00,,,0.00,Wunderground v.1.15,2013-03-06 15:49:00,
2013-03-06 09:54:00,32.2,27.9,30.12,NNE,20,8.0,11.0,84,0.00,,,0.00,Wunderground v.1.15,2013-03-06 15:54:00,
2013-03-06 10:00:00,32.2,27.6,30.12,NNE,28,7.0,7.0,83,0.00,,,0.00,Wunderground v.1.15,2013-03-06 16:00:00,
2013-03-06 10:05:00,32.1,27.5,30.13,North,9,8.0,8.0,83,0.00,,,0.00,Wunderground v.1.15,2013-03-06 16:05:00,
2013-03-06 10:10:00,32.2,27.9,30.13,NE,40,8.0,8.0,84,0.00,,,0.00,Wunderground v.1.15,2013-03-06 16:10:00,
2013-03-06 10:15:00,32.2,27.9,30.13,North,360,8.0,12.0,84,0.00,,,0.00,Wunderground v.1.15,2013-03-06 16:15:00,
2013-03-06 10:20:00,32.1,27.8,30.14,NNE,16,9.0,9.0,84,0.00,,,0.01,Wunderground v.1.15,2013-03-06 16:20:00,
2013-03-06 10:25:00,32.2,27.9,30.14,NNE,32,8.0,9.0,84,0.00,,,0.01,Wunderground v.1.15,2013-03-06 16:25:00,
2013-03-06 10:30:00,32.4,28.1,30.14,NE,45,7.0,7.0,84,0.00,,,0.01,Wunderground v.1.15,2013-03-06 16:30:00,
2013-03-06 10:35:00,32.4,27.8,30.14,NE,40,7.0,8.0,83,0.05,,,0.02,Wunderground v.1.15,2013-03-06 16:35:00,
2013-03-06 10:40:00,32.7,28.4,30.14,NNE,16,6.0,6.0,84,0.05,,,0.02,Wunderground v.1.15,2013-03-06 16:40:00,
2013-03-06 10:45:00,32.7,28.1,30.14,NNE,13,4.0,6.0,83,0.04,,,0.02,Wunderground v.1.15,2013-03-06 16:45:00,
2013-03-06 10:50:00,32.7,28.4,30.14,NNE,33,5.0,5.0,84,0.00,,,0.03,Wunderground v.1.15,2013-03-06 16:50:00,
2013-03-06 10:59:00,32.5,28.2,30.14,NNE,21,6.0,9.0,84,0.00,,,0.03,Wunderground v.1.15,2013-03-06 16:59:00,
2013-03-06 11:05:00,32.5,28.2,30.14,North,9,6.0,9.0,84,0.00,,,0.03,Wunderground v.1.15,2013-03-06 17:05:00,
2013-03-06 11:10:00,32.4,27.5,30.14,NE,40,7.0,7.0,82,0.04,,,0.04,Wunderground v.1.15,2013-03-06 17:10:00,
2013-03-06 11:15:00,32.5,27.9,30.14,NNE,21,7.0,9.0,83,0.04,,,0.04,Wunderground v.1.15,2013-03-06 17:15:00,
2013-03-06 11:20:00,32.7,28.1,30.15,North,360,6.0,10.0,83,0.04,,,0.04,Wunderground v.1.15,2013-03-06 17:20:00,
2013-03-06 11:25:00,32.5,27.6,30.15,NNE,26,6.0,10.0,82,0.04,,,0.05,Wunderground v.1.15,2013-03-06 17:25:00,
2013-03-06 11:30:00,32.7,27.8,30.15,ENE,78,6.0,6.0,82,0.04,,,0.05,Wunderground v.1.15,2013-03-06 17:30:00,
2013-03-06 11:35:00,32.5,27.3,30.15,NE,40,6.0,6.0,81,0.07,,,0.06,Wunderground v.1.15,2013-03-06 17:35:00,
2013-03-06 11:40:00,32.8,27.6,30.15,ENE,57,5.0,5.0,81,0.07,,,0.06,Wunderground v.1.15,2013-03-06 17:40:00,
2013-03-06 11:45:00,32.7,26.9,30.15,NE,41,6.0,6.0,79,0.04,,,0.06,Wunderground v.1.15,2013-03-06 17:45:00,
2013-03-06 11:50:00,32.7,26.9,30.15,ENE,63,6.0,6.0,79,0.00,,,0.06,Wunderground v.1.15,2013-03-06 17:50:00,
2013-03-06 11:55:00,32.7,26.9,30.15,ENE,58,6.0,6.0,79,0.00,,,0.07,Wunderground v.1.15,2013-03-06 17:55:00,
2013-03-06 12:00:00,32.7,26.9,30.15,NE,45,6.0,10.0,79,0.00,,,0.07,Wunderground v.1.15,2013-03-06 18:00:00,
2013-03-06 12:05:00,32.7,26.6,30.15,NE,46,6.0,11.0,78,0.06,,,0.08,Wunderground v.1.15,2013-03-06 18:05:00,
2013-03-06 12:10:00,32.8,26.7,30.15,NNE,33,6.0,6.0,78,0.06,,,0.08,Wunderground v.1.15,2013-03-06 18:10:00,
2013-03-06 12:15:00,32.7,26.6,30.15,NNE,17,6.0,11.0,78,0.06,,,0.09,Wunderground v.1.15,2013-03-06 18:15:00,
2013-03-06 12:20:00,32.8,27.0,30.15,NNE,12,7.0,9.0,79,0.14,,,0.10,Wunderground v.1.15,2013-03-06 18:20:00,
2013-03-06 12:25:00,32.9,27.1,30.15,North,360,8.0,10.0,79,0.08,,,0.10,Wunderground v.1.15,2013-03-06 18:25:00,
2013-03-06 12:30:00,32.9,26.8,30.15,NNE,24,8.0,8.0,78,0.07,,,0.11,Wunderground v.1.15,2013-03-06 18:30:00,
2013-03-06 12:35:00,32.9,26.8,30.15,NNE,24,9.0,9.0,78,0.07,,,0.11,Wunderground v.1.15,2013-03-06 18:35:00,
2013-03-06 12:40:00,33.1,27.0,30.15,North,5,9.0,9.0,78,0.07,,,0.12,Wunderground v.1.15,2013-03-06 18:40:00,
2013-03-06 12:45:00,33.4,27.3,30.15,NNE,22,7.0,9.0,78,0.06,,,0.13,Wunderground v.1.15,2013-03-06 18:45:00,
2013-03-06 12:50:00,33.4,27.3,30.15,NE,36,6.0,6.0,78,0.06,,,0.13,Wunderground v.1.15,2013-03-06 18:50:00,
2013-03-06 12:55:00,33.7,27.6,30.15,NNE,13,5.0,6.0,78,0.10,,,0.14,Wunderground v.1.15,2013-03-06 18:55:00,
2013-03-06 13:00:00,34.0,27.2,30.14,NNE,17,5.0,11.0,76,0.07,,,0.15,Wunderground v.1.15,2013-03-06 19:00:00,
2013-03-06 13:04:00,34.0,27.2,30.14,ENE,66,5.0,11.0,76,0.11,,,0.16,Wunderground v.1.15,2013-03-06 19:04:00,
2013-03-06 13:10:00,34.1,27.3,30.14,NE,44,5.0,5.0,76,0.11,,,0.16,Wunderground v.1.15,2013-03-06 19:10:00,
2013-03-06 13:15:00,34.0,26.9,30.14,NE,36,4.0,5.0,75,0.06,,,0.16,Wunderground v.1.15,2013-03-06 19:15:00,
2013-03-06 13:20:00,33.7,26.9,30.14,NNE,15,5.0,5.0,76,0.04,,,0.16,Wunderground v.1.15,2013-03-06 19:20:00,
2013-03-06 13:25:00,33.4,26.6,30.14,North,11,7.0,9.0,76,0.00,,,0.16,Wunderground v.1.15,2013-03-06 19:25:00,
2013-03-06 13:30:00,33.5,26.7,30.14,North,11,7.0,7.0,76,0.00,,,0.17,Wunderground v.1.15,2013-03-06 19:30:00,
2013-03-06 13:35:00,33.5,26.7,30.14,NNE,19,7.0,9.0,76,0.07,,,0.18,Wunderground v.1.15,2013-03-06 19:35:00,
2013-03-06 13:40:00,33.8,27.0,30.14,NNE,25,7.0,7.0,76,0.07,,,0.18,Wunderground v.1.15,2013-03-06 19:40:00,
2013-03-06 13:45:00,34.0,27.2,30.14,NNE,24,6.0,7.0,76,0.06,,,0.19,Wunderground v.1.15,2013-03-06 19:45:00,
2013-03-06 13:50:00,33.8,27.0,30.14,NNE,23,6.0,9.0,76,0.06,,,0.19,Wunderground v.1.15,2013-03-06 19:50:00,
2013-03-06 13:55:00,33.8,26.7,30.14,NNE,18,7.0,9.0,75,0.07,,,0.20,Wunderground v.1.15,2013-03-06 19:55:00,
2013-03-06 14:00:00,33.8,27.0,30.14,NNE,19,7.0,7.0,76,0.07,,,0.20,Wunderground v.1.15,2013-03-06 20:00:00,
2013-03-06 14:05:00,33.8,27.0,30.14,NNE,24,8.0,8.0,76,0.05,,,0.20,Wunderground v.1.15,2013-03-06 20:05:00,
2013-03-06 14:10:00,33.8,27.0,30.14,NNE,28,8.0,8.0,76,0.04,,,0.20,Wunderground v.1.15,2013-03-06 20:10:00,
2013-03-06 14:15:00,34.0,26.9,30.14,NNE,12,8.0,10.0,75,0.00,,,0.21,Wunderground v.1.15,2013-03-06 20:15:00,
2013-03-06 14:20:00,34.1,27.0,30.14,NNE,31,7.0,9.0,75,0.00,,,0.21,Wunderground v.1.15,2013-03-06 20:20:00,
2013-03-06 14:25:00,34.3,26.9,30.14,NNE,28,6.0,9.0,74,0.00,,,0.21,Wunderground v.1.15,2013-03-06 20:25:00,
2013-03-06 14:30:00,34.3,26.9,30.14,NNE,19,7.0,7.0,74,0.04,,,0.22,Wunderground v.1.15,2013-03-06 20:30:00,
2013-03-06 14:35:00,34.4,27.0,30.15,NNE,24,7.0,13.0,74,0.04,,,0.22,Wunderground v.1.15,2013-03-06 20:35:00,
2013-03-06 14:40:00,34.6,27.2,30.15,NNE,33,6.0,6.0,74,0.04,,,0.22,Wunderground v.1.15,2013-03-06 20:40:00,
2013-03-06 14:45:00,34.7,27.3,30.15,NNE,21,6.0,6.0,74,0.00,,,0.22,Wunderground v.1.15,2013-03-06 20:45:00,
2013-03-06 14:50:00,34.6,27.2,30.16,NNE,17,6.0,6.0,74,0.00,,,0.22,Wunderground v.1.15,2013-03-06 20:50:00,
2013-03-06 14:55:00,34.6,27.2,30.16,North,10,7.0,8.0,74,0.00,,,0.23,Wunderground v.1.15,2013-03-06 20:55:00,
2013-03-06 15:00:00,34.4,27.3,30.16,NNE,23,7.0,7.0,75,0.00,,,0.23,Wunderground v.1.15,2013-03-06 21:00:00,
2013-03-06 15:04:00,34.4,27.3,30.16,NE,42,6.0,7.0,75,0.00,,,0.23,Wunderground v.1.15,2013-03-06 21:04:00,
2013-03-06 15:09:00,34.6,27.5,30.16,NNE,32,5.0,6.0,75,0.00,,,0.23,Wunderground v.1.15,2013-03-06 21:09:00,
2013-03-06 15:15:00,34.7,27.6,30.16,NE,54,4.0,6.0,75,0.00,,,0.24,Wunderground v.1.15,2013-03-06 21:15:00,
2013-03-06 15:20:00,34.7,27.6,30.16,NNE,30,5.0,6.0,75,0.00,,,0.24,Wunderground v.1.15,2013-03-06 21:20:00,
2013-03-06 15:25:00,34.9,27.8,30.16,NNE,28,4.0,7.0,75,0.00,,,0.24,Wunderground v.1.15,2013-03-06 21:25:00,
2013-03-06 15:30:00,34.7,27.6,30.16,NNE,32,4.0,4.0,75,0.00,,,0.24,Wunderground v.1.15,2013-03-06 21:30:00,
2013-03-06 15:40:00,34.7,27.9,30.16,NNE,29,4.0,8.0,76,0.00,,,0.24,Wunderground v.1.15,2013-03-06 21:40:00,
2013-03-06 15:45:00,34.7,27.9,30.16,NNE,17,4.0,8.0,76,0.00,,,0.24,Wunderground v.1.15,2013-03-06 21:45:00,
2013-03-06 15:50:00,34.6,27.5,30.16,NNE,22,5.0,7.0,75,0.00,,,0.24,Wunderground v.1.15,2013-03-06 21:50:00,
2013-03-06 15:55:00,34.6,27.8,30.16,North,10,6.0,9.0,76,0.00,,,0.24,Wunderground v.1.15,2013-03-06 21:55:00,
2013-03-06 16:00:00,34.6,27.8,30.16,North,360,7.0,11.0,76,0.00,,,0.24,Wunderground v.1.15,2013-03-06 22:00:00,
2013-03-06 16:05:00,34.6,28.1,30.17,North,5,6.0,11.0,77,0.00,,,0.24,Wunderground v.1.15,2013-03-06 22:05:00,
2013-03-06 16:10:00,34.4,28.6,30.17,NNE,27,6.0,6.0,79,0.00,,,0.24,Wunderground v.1.15,2013-03-06 22:10:00,
2013-03-06 16:14:00,34.3,28.5,30.17,NNE,12,5.0,6.0,79,0.00,,,0.25,Wunderground v.1.15,2013-03-06 22:14:00,
2013-03-06 16:19:00,34.3,28.8,30.17,North,5,5.0,6.0,80,0.00,,,0.25,Wunderground v.1.15,2013-03-06 22:19:00,
2013-03-06 16:24:00,34.1,28.6,30.17,NNE,14,6.0,6.0,80,0.00,,,0.25,Wunderground v.1.15,2013-03-06 22:24:00,
2013-03-06 16:29:00,34.1,28.6,30.17,NNE,19,5.0,10.0,80,0.00,,,0.25,Wunderground v.1.15,2013-03-06 22:29:00,
2013-03-06 16:34:00,34.1,28.9,30.17,NNE,18,5.0,10.0,81,0.00,,,0.25,Wunderground v.1.15,2013-03-06 22:34:00,
2013-03-06 16:39:00,34.1,28.9,30.17,NNE,18,5.0,5.0,81,0.00,,,0.25,Wunderground v.1.15,2013-03-06 22:39:00,
2013-03-06 16:45:00,34.1,28.9,30.17,NNE,20,4.0,5.0,81,0.00,,,0.25,Wunderground v.1.15,2013-03-06 22:45:00,
2013-03-06 16:50:00,34.3,29.1,30.18,NNE,18,5.0,5.0,81,0.00,,,0.25,Wunderground v.1.15,2013-03-06 22:50:00,
2013-03-06 16:55:00,34.1,28.9,30.18,NNE,18,5.0,6.0,81,0.00,,,0.25,Wunderground v.1.15,2013-03-06 22:55:00,
2013-03-06 17:00:00,34.1,28.9,30.18,NNE,13,5.0,5.0,81,0.00,,,0.25,Wunderground v.1.15,2013-03-06 23:00:00,
2013-03-06 17:04:00,34.1,28.9,30.19,NNE,13,5.0,9.0,81,0.00,,,0.25,Wunderground v.1.15,2013-03-06 23:04:00,
2013-03-06 17:09:00,34.1,28.9,30.19,NNE,18,6.0,6.0,81,0.00,,,0.25,Wunderground v.1.15,2013-03-06 23:09:00,
2013-03-06 17:19:00,34.1,28.9,30.19,North,11,6.0,6.0,81,0.00,,,0.25,Wunderground v.1.15,2013-03-06 23:19:00,
2013-03-06 17:24:00,34.1,28.9,30.19,North,11,5.0,6.0,81,0.00,,,0.25,Wunderground v.1.15,2013-03-06 23:24:00,
2013-03-06 17:29:00,34.0,29.1,30.19,North,11,4.0,4.0,82,0.00,,,0.25,Wunderground v.1.15,2013-03-06 23:29:00,
2013-03-06 17:34:00,34.0,28.8,30.19,NNE,12,4.0,4.0,81,0.00,,,0.25,Wunderground v.1.15,2013-03-06 23:34:00,
2013-03-06 17:39:00,34.1,28.9,30.19,North,11,4.0,7.0,81,0.00,,,0.25,Wunderground v.1.15,2013-03-06 23:39:00,
2013-03-06 17:44:00,34.1,28.6,30.19,North,360,5.0,7.0,80,0.00,,,0.25,Wunderground v.1.15,2013-03-06 23:44:00,
2013-03-06 17:50:00,34.1,28.9,30.19,North,10,5.0,6.0,81,0.00,,,0.25,Wunderground v.1.15,2013-03-06 23:50:00,
2013-03-06 17:55:00,34.0,28.8,30.19,North,5,5.0,6.0,81,0.00,,,0.25,Wunderground v.1.15,2013-03-06 23:55:00,
2013-03-06 18:00:00,34.0,28.8,30.19,North,5,5.0,7.0,81,0.00,,,0.25,Wunderground v.1.15,2013-03-07 00:00:00,
2013-03-06 18:05:00,34.0,28.8,30.19,North,5,5.0,7.0,81,0.00,,,0.25,Wunderground v.1.15,2013-03-07 00:05:00,
2013-03-06 18:10:00,34.0,29.1,30.19,North,5,4.0,4.0,82,0.00,,,0.25,Wunderground v.1.15,2013-03-07 00:10:00,
2013-03-06 18:14:00,33.8,28.9,30.19,North,5,4.0,5.0,82,0.00,,,0.25,Wunderground v.1.15,2013-03-07 00:14:00,
2013-03-06 18:19:00,33.7,29.1,30.20,North,360,4.0,6.0,83,0.00,,,0.25,Wunderground v.1.15,2013-03-07 00:19:00,
2013-03-06 18:25:00,33.7,29.4,30.20,North,360,5.0,6.0,84,0.00,,,0.25,Wunderground v.1.15,2013-03-07 00:25:00,
2013-03-06 18:34:00,33.7,29.7,30.20,North,360,6.0,6.0,85,0.00,,,0.25,Wunderground v.1.15,2013-03-07 00:34:00,
2013-03-06 18:39:00,33.7,29.7,30.20,North,355,7.0,7.0,85,0.00,,,0.25,Wunderground v.1.15,2013-03-07 00:39:00,
2013-03-06 18:44:00,33.7,30.0,30.20,North,351,6.0,9.0,86,0.00,,,0.25,Wunderground v.1.15,2013-03-07 00:44:00,
2013-03-06 18:49:00,33.7,30.0,30.20,NNW,345,5.0,6.0,86,0.00,,,0.25,Wunderground v.1.15,2013-03-07 00:49:00,
2013-03-06 18:54:00,33.5,29.8,30.20,NNW,345,5.0,6.0,86,0.00,,,0.25,Wunderground v.1.15,2013-03-07 00:54:00,
2013-03-06 19:00:00,33.5,30.0,30.20,NNW,343,5.0,7.0,87,0.00,,,0.25,Wunderground v.1.15,2013-03-07 01:00:00,
2013-03-06 19:05:00,33.5,30.0,30.20,NNW,347,5.0,7.0,87,0.00,,,0.25,Wunderground v.1.15,2013-03-07 01:05:00,
2013-03-06 19:10:00,33.5,30.0,30.20,NNW,347,5.0,5.0,87,0.00,,,0.25,Wunderground v.1.15,2013-03-07 01:10:00,
2013-03-06 19:15:00,33.4,30.2,30.20,North,350,6.0,10.0,88,0.00,,,0.25,Wunderground v.1.15,2013-03-07 01:15:00,
2013-03-06 19:20:00,33.2,30.0,30.20,North,355,7.0,7.0,88,0.00,,,0.25,Wunderground v.1.15,2013-03-07 01:20:00,
2013-03-06 19:25:00,33.1,29.9,30.20,North,351,6.0,7.0,88,0.00,,,0.25,Wunderground v.1.15,2013-03-07 01:25:00,
2013-03-06 19:29:00,33.1,30.2,30.20,NNW,348,5.0,5.0,89,0.00,,,0.25,Wunderground v.1.15,2013-03-07 01:29:00,
2013-03-06 19:35:00,33.1,30.2,30.20,North,355,6.0,6.0,89,0.00,,,0.25,Wunderground v.1.15,2013-03-07 01:35:00,
2013-03-06 19:40:00,33.1,30.2,30.20,North,360,6.0,9.0,89,0.00,,,0.25,Wunderground v.1.15,2013-03-07 01:40:00,
2013-03-06 19:44:00,32.9,30.0,30.20,North,360,7.0,11.0,89,0.00,,,0.25,Wunderground v.1.15,2013-03-07 01:44:00,
2013-03-06 19:49:00,32.9,30.0,30.21,North,9,9.0,9.0,89,0.00,,,0.25,Wunderground v.1.15,2013-03-07 01:49:00,
2013-03-06 19:54:00,33.1,30.2,30.21,North,5,8.0,10.0,89,0.00,,,0.25,Wunderground v.1.15,2013-03-07 01:54:00,
2013-03-06 19:59:00,33.1,30.2,30.21,North,5,8.0,9.0,89,0.00,,,0.25,Wunderground v.1.15,2013-03-07 01:59:00,
2013-03-06 20:05:00,33.1,30.2,30.22,NNE,14,8.0,9.0,89,0.00,,,0.25,Wunderground v.1.15,2013-03-07 02:05:00,
2013-03-06 20:10:00,33.2,30.3,30.22,North,9,8.0,8.0,89,0.00,,,0.25,Wunderground v.1.15,2013-03-07 02:10:00,
2013-03-06 20:15:00,33.2,30.3,30.22,North,9,9.0,9.0,89,0.00,,,0.25,Wunderground v.1.15,2013-03-07 02:15:00,
2013-03-06 20:20:00,33.2,30.3,30.22,NNE,19,8.0,10.0,89,0.00,,,0.25,Wunderground v.1.15,2013-03-07 02:20:00,
2013-03-06 20:25:00,33.2,30.3,30.22,NNE,12,8.0,10.0,89,0.00,,,0.25,Wunderground v.1.15,2013-03-07 02:25:00,
2013-03-06 20:30:00,33.1,30.5,30.22,NNE,17,7.0,8.0,90,0.00,,,0.25,Wunderground v.1.15,2013-03-07 02:30:00,
2013-03-06 20:35:00,33.2,30.6,30.22,North,10,7.0,8.0,90,0.00,,,0.25,Wunderground v.1.15,2013-03-07 02:35:00,
2013-03-06 20:39:00,33.2,30.6,30.22,North,355,8.0,12.0,90,0.00,,,0.25,Wunderground v.1.15,2013-03-07 02:39:00,
2013-03-06 20:45:00,33.2,30.6,30.22,North,11,9.0,12.0,90,0.00,,,0.25,Wunderground v.1.15,2013-03-07 02:45:00,
2013-03-06 20:50:00,33.2,30.6,30.22,North,5,9.0,9.0,90,0.00,,,0.25,Wunderground v.1.15,2013-03-07 02:50:00,
2013-03-06 20:54:00,33.2,30.6,30.22,North,9,9.0,9.0,90,0.00,,,0.25,Wunderground v.1.15,2013-03-07 02:54:00,
2013-03-06 20:59:00,33.1,30.5,30.22,North,11,8.0,8.0,90,0.00,,,0.25,Wunderground v.1.15,2013-03-07 02:59:00,
2013-03-06 21:05:00,33.2,30.6,30.22,NNE,20,8.0,8.0,90,0.00,,,0.25,Wunderground v.1.15,2013-03-07 03:05:00,
2013-03-06 21:10:00,33.2,30.6,30.22,NNE,26,9.0,9.0,90,0.00,,,0.26,Wunderground v.1.15,2013-03-07 03:10:00,
2013-03-06 21:15:00,33.1,30.5,30.22,North,5,9.0,9.0,90,0.00,,,0.26,Wunderground v.1.15,2013-03-07 03:15:00,
2013-03-06 21:20:00,32.8,30.2,30.22,North,355,9.0,9.0,90,0.00,,,0.26,Wunderground v.1.15,2013-03-07 03:20:00,
2013-03-06 21:25:00,32.8,30.2,30.22,North,5,10.0,11.0,90,0.00,,,0.26,Wunderground v.1.15,2013-03-07 03:25:00,
2013-03-06 21:30:00,32.7,30.1,30.22,NNW,348,10.0,10.0,90,0.00,,,0.26,Wunderground v.1.15,2013-03-07 03:30:00,
2013-03-06 21:35:00,32.7,30.4,30.22,North,350,11.0,11.0,91,0.00,,,0.26,Wunderground v.1.15,2013-03-07 03:35:00,
2013-03-06 21:39:00,32.7,30.4,30.22,North,355,9.0,9.0,91,0.00,,,0.26,Wunderground v.1.15,2013-03-07 03:39:00,
2013-03-06 21:44:00,32.5,30.2,30.22,North,349,8.0,9.0,91,0.00,,,0.26,Wunderground v.1.15,2013-03-07 03:44:00,
2013-03-06 21:49:00,32.7,30.4,30.22,North,360,8.0,11.0,91,0.00,,,0.26,Wunderground v.1.15,2013-03-07 03:49:00,
2013-03-06 21:54:00,32.8,30.5,30.22,NNE,20,8.0,11.0,91,0.00,,,0.26,Wunderground v.1.15,2013-03-07 03:54:00,
2013-03-06 21:59:00,32.8,30.2,30.22,North,10,8.0,8.0,90,0.00,,,0.26,Wunderground v.1.15,2013-03-07 03:59:00,
2013-03-06 22:05:00,32.8,30.2,30.23,NNE,19,9.0,11.0,90,0.00,,,0.26,Wunderground v.1.15,2013-03-07 04:05:00,
2013-03-06 22:10:00,32.8,30.2,30.23,North,5,9.0,9.0,90,0.00,,,0.26,Wunderground v.1.15,2013-03-07 04:10:00,
2013-03-06 22:15:00,32.9,30.3,30.23,NNW,343,9.0,11.0,90,0.00,,,0.26,Wunderground v.1.15,2013-03-07 04:15:00,
2013-03-06 22:20:00,33.1,30.5,30.23,NNW,348,9.0,9.0,90,0.00,,,0.26,Wunderground v.1.15,2013-03-07 04:20:00,
2013-03-06 22:25:00,33.1,30.5,30.23,North,360,9.0,11.0,90,0.00,,,0.26,Wunderground v.1.15,2013-03-07 04:25:00,
2013-03-06 22:30:00,33.2,30.6,30.23,North,360,8.0,8.0,90,0.00,,,0.26,Wunderground v.1.15,2013-03-07 04:30:00,
2013-03-06 22:35:00,33.2,30.6,30.23,North,355,9.0,9.0,90,0.00,,,0.26,Wunderground v.1.15,2013-03-07 04:35:00,
2013-03-06 22:40:00,33.2,30.6,30.23,North,11,8.0,8.0,90,0.00,,,0.26,Wunderground v.1.15,2013-03-07 04:40:00,
2013-03-06 22:45:00,33.1,30.5,30.23,North,360,8.0,8.0,90,0.00,,,0.26,Wunderground v.1.15,2013-03-07 04:45:00,
2013-03-06 22:50:00,32.9,30.3,30.23,North,11,8.0,8.0,90,0.00,,,0.26,Wunderground v.1.15,2013-03-07 04:50:00,
2013-03-06 22:55:00,32.9,30.3,30.23,NNE,23,7.0,8.0,90,0.00,,,0.26,Wunderground v.1.15,2013-03-07 04:55:00,
2013-03-06 23:00:00,32.9,30.6,30.23,North,9,5.0,5.0,91,0.00,,,0.26,Wunderground v.1.15,2013-03-07 05:00:00,
2013-03-06 23:09:00,32.9,30.6,30.23,North,355,6.0,6.0,91,0.00,,,0.00,Wunderground v.1.15,2013-03-07 05:09:00,
2013-03-06 23:14:00,32.9,30.6,30.23,North,360,6.0,6.0,91,0.00,,,0.00,Wunderground v.1.15,2013-03-07 05:14:00,
2013-03-06 23:19:00,33.1,30.8,30.22,North,360,6.0,7.0,91,0.00,,,0.00,Wunderground v.1.15,2013-03-07 05:19:00,
2013-03-06 23:25:00,33.1,30.8,30.22,North,360,5.0,7.0,91,0.00,,,0.00,Wunderground v.1.15,2013-03-07 05:25:00,
2013-03-06 23:30:00,33.2,30.9,30.22,North,5,6.0,6.0,91,0.00,,,0.00,Wunderground v.1.15,2013-03-07 05:30:00,
2013-03-06 23:35:00,33.4,30.8,30.22,NNE,22,7.0,9.0,90,0.00,,,0.00,Wunderground v.1.15,2013-03-07 05:35:00,
2013-03-06 23:40:00,33.4,30.8,30.22,NNE,24,6.0,6.0,90,0.00,,,0.00,Wunderground v.1.15,2013-03-07 05:40:00,
2013-03-06 23:45:00,33.4,30.5,30.22,NE,37,6.0,6.0,89,0.00,,,0.00,Wunderground v.1.15,2013-03-07 05:45:00,
2013-03-06 23:50:00,33.5,30.3,30.22,NNE,18,7.0,7.0,88,0.00,,,0.00,Wunderground v.1.15,2013-03-07 05:50:00,
2013-03-06 23:55:00,33.5,30.3,30.22,NNE,18,7.0,7.0,88,0.00,,,0.00,Wunderground v.1.15,2013-03-07 05:55:00,
2013-03-06 23:59:00,33.7,30.5,30.22,NNE,13,7.0,9.0,88,0.00,,,0.00,Wunderground v.1.15,2013-03-07 05:59:00,